createdAt,value
2023-03-08T00:02:11.349Z,100.00
2023-03-08T00:04:40.994Z,100.00
2023-03-08T00:07:12.557Z,100.00
2023-03-08T00:09:42.130Z,100.00
2023-03-08T00:12:13.273Z,100.00
2023-03-08T00:14:42.940Z,100.00
2023-03-08T00:17:13.316Z,100.00
2023-03-08T00:19:43.061Z,100.00
2023-03-08T00:22:13.544Z,100.00
2023-03-08T00:24:43.091Z,100.00
2023-03-08T00:27:13.427Z,100.00
2023-03-08T00:29:43.540Z,100.00
2023-03-08T00:32:13.177Z,100.00
2023-03-08T00:34:47.234Z,100.00
2023-03-08T00:37:17.354Z,100.00
2023-03-08T00:39:52.228Z,100.00
2023-03-08T00:42:23.130Z,100.00
2023-03-08T00:44:53.799Z,100.00
2023-03-08T00:47:24.414Z,100.00
2023-03-08T00:49:54.000Z,100.00
2023-03-08T00:52:24.577Z,100.00
2023-03-08T00:54:54.621Z,100.00
2023-03-08T00:57:24.286Z,100.00
2023-03-08T00:59:55.219Z,100.00
2023-03-08T01:02:24.908Z,100.00
2023-03-08T01:04:54.873Z,100.00
2023-03-08T01:07:26.025Z,100.00
2023-03-08T01:09:57.332Z,100.00
2023-03-08T01:12:26.944Z,100.00
2023-03-08T01:14:58.608Z,100.00
2023-03-08T01:17:29.136Z,100.00
2023-03-08T01:19:58.819Z,100.00
2023-03-08T01:22:28.379Z,100.00
2023-03-08T01:24:59.091Z,100.00
2023-03-08T01:27:30.708Z,100.00
2023-03-08T01:30:03.622Z,100.00
2023-03-08T01:32:33.352Z,100.00
2023-03-08T01:35:05.397Z,100.00
2023-03-08T01:37:35.253Z,100.00
2023-03-08T01:40:07.234Z,100.00
2023-03-08T01:42:39.896Z,100.00
2023-03-08T01:45:41.400Z,100.00
2023-03-08T01:48:12.356Z,100.00
2023-03-08T01:51:03.107Z,100.00
2023-03-08T01:53:35.090Z,100.00
2023-03-08T01:56:07.210Z,100.00
2023-03-08T01:58:38.582Z,100.00
2023-03-08T02:01:09.182Z,100.00
2023-03-08T02:03:38.959Z,100.00
2023-03-08T02:06:10.453Z,100.00
2023-03-08T02:08:40.627Z,100.00
2023-03-08T02:11:12.266Z,100.00
2023-03-08T02:13:43.517Z,100.00
2023-03-08T02:16:16.604Z,100.00
2023-03-08T02:18:55.601Z,100.00
2023-03-08T02:21:25.877Z,100.00
2023-03-08T02:23:56.252Z,100.00
2023-03-08T02:26:26.287Z,100.00
2023-03-08T02:28:56.534Z,100.00
2023-03-08T02:31:26.749Z,100.00
2023-03-08T02:33:57.363Z,100.00
2023-03-08T02:36:29.635Z,100.00
2023-03-08T02:38:59.209Z,100.00
2023-03-08T02:41:31.658Z,100.00
2023-03-08T02:44:01.263Z,100.00
2023-03-08T02:46:30.950Z,100.00
2023-03-08T02:49:02.203Z,100.00
2023-03-08T02:51:31.797Z,100.00
2023-03-08T02:54:01.390Z,100.00
2023-03-08T02:56:32.354Z,100.00
2023-03-08T02:59:01.958Z,100.00
2023-03-08T03:01:33.455Z,100.00
2023-03-08T03:04:03.182Z,100.00
2023-03-08T03:06:35.526Z,100.00
2023-03-08T03:09:08.933Z,100.00
2023-03-08T03:11:40.444Z,100.00
2023-03-08T03:14:10.049Z,100.00
2023-03-08T03:16:42.753Z,100.00
2023-03-08T03:19:13.407Z,100.00
2023-03-08T03:21:43.591Z,100.00
2023-03-08T03:24:15.039Z,100.00
2023-03-08T03:26:51.530Z,99.91
2023-03-08T03:29:21.496Z,99.98
2023-03-08T03:31:55.222Z,100.00
2023-03-08T03:34:25.807Z,99.99
2023-03-08T03:36:56.599Z,99.90
2023-03-08T03:39:26.634Z,99.79
2023-03-08T03:41:57.257Z,99.80
2023-03-08T03:44:28.632Z,99.75
2023-03-08T03:46:58.803Z,99.77
2023-03-08T03:49:30.218Z,99.61
2023-03-08T03:52:00.281Z,99.39
2023-03-08T03:54:36.689Z,99.18
2023-03-08T03:57:07.769Z,99.41
2023-03-08T03:59:39.380Z,99.27
2023-03-08T04:02:11.541Z,99.45
2023-03-08T04:04:49.480Z,99.19
2023-03-08T04:07:20.579Z,99.30
2023-03-08T04:09:57.511Z,99.07
2023-03-08T04:12:28.126Z,99.00
2023-03-08T04:14:58.199Z,98.98
2023-03-08T04:17:31.328Z,98.48
2023-03-08T04:20:01.065Z,97.94
2023-03-08T04:22:34.424Z,98.39
2023-03-08T04:25:10.525Z,98.29
2023-03-08T04:27:51.459Z,98.16
2023-03-08T04:30:22.790Z,97.59
2023-03-08T04:32:53.977Z,97.27
2023-03-08T04:35:25.709Z,97.57
2023-03-08T04:37:56.654Z,97.37
2023-03-08T04:40:29.352Z,97.44
2023-03-08T04:43:01.980Z,97.33
2023-03-08T04:45:38.940Z,97.44
2023-03-08T04:48:13.318Z,97.65
2023-03-08T04:50:43.702Z,97.62
2023-03-08T04:53:14.737Z,97.66
2023-03-08T04:55:44.863Z,97.62
2023-03-08T04:58:15.443Z,97.73
2023-03-08T05:00:45.153Z,97.70
2023-03-08T05:03:16.509Z,98.20
2023-03-08T05:05:50.853Z,97.78
2023-03-08T05:08:22.266Z,97.86
2023-03-08T05:10:59.607Z,97.90
2023-03-08T05:13:33.012Z,98.19
2023-03-08T05:16:04.165Z,98.47
2023-03-08T05:18:34.448Z,98.58
2023-03-08T05:21:07.417Z,98.62
2023-03-08T05:23:38.060Z,98.49
2023-03-08T05:26:10.932Z,98.58
2023-03-08T05:28:41.961Z,98.37
2023-03-08T05:31:15.132Z,98.75
2023-03-08T05:33:46.741Z,98.80
2023-03-08T05:36:18.573Z,98.88
2023-03-08T05:38:53.284Z,99.07
2023-03-08T05:41:22.986Z,99.20
2023-03-08T05:43:54.485Z,99.14
2023-03-08T05:46:24.433Z,99.34
2023-03-08T05:48:54.090Z,99.43
2023-03-08T05:51:24.501Z,99.62
2023-03-08T05:53:57.421Z,99.80
2023-03-08T05:56:27.106Z,99.85
2023-03-08T05:59:05.016Z,99.88
2023-03-08T06:01:34.741Z,99.92
2023-03-08T06:04:27.034Z,100.00
2023-03-08T06:06:56.878Z,99.94
2023-03-08T06:09:29.694Z,100.00
2023-03-08T06:11:59.768Z,99.94
2023-03-08T06:14:29.501Z,100.00
2023-03-08T06:17:00.651Z,100.00
2023-03-08T06:19:32.764Z,100.00
2023-03-08T06:22:02.321Z,100.00
2023-03-08T06:24:32.419Z,100.00
2023-03-08T06:27:03.494Z,100.00
2023-03-08T06:29:34.752Z,100.00
2023-03-08T06:32:05.799Z,100.00
2023-03-08T06:34:36.108Z,100.00
2023-03-08T06:37:05.928Z,100.00
2023-03-08T06:39:35.860Z,100.00
2023-03-08T06:42:06.941Z,100.00
2023-03-08T06:44:39.946Z,100.00
2023-03-08T06:47:10.532Z,100.00
2023-03-08T06:49:40.108Z,100.00
2023-03-08T06:52:11.370Z,100.00
2023-03-08T06:54:41.003Z,100.00
2023-03-08T06:57:11.628Z,99.97
2023-03-08T06:59:41.186Z,99.92
2023-03-08T07:02:11.660Z,99.90
2023-03-08T07:04:41.492Z,99.98
2023-03-08T07:07:11.061Z,99.98
2023-03-08T07:09:40.842Z,99.91
2023-03-08T07:12:10.828Z,99.99
2023-03-08T07:14:40.711Z,99.01
2023-03-08T07:17:11.377Z,99.10
2023-03-08T07:19:41.058Z,99.30
2023-03-08T07:22:12.856Z,99.30
2023-03-08T07:24:42.381Z,99.15
2023-03-08T07:27:12.406Z,99.20
2023-03-08T07:29:42.064Z,99.34
2023-03-08T07:32:11.834Z,99.38
2023-03-08T07:34:41.684Z,99.27
2023-03-08T07:37:13.600Z,98.72
2023-03-08T07:39:44.706Z,98.78
2023-03-08T07:42:14.354Z,98.50
2023-03-08T07:44:46.913Z,99.03
2023-03-08T07:47:16.520Z,98.59
2023-03-08T07:49:46.245Z,98.52
2023-03-08T07:52:15.981Z,97.44
2023-03-08T07:54:45.704Z,96.92
2023-03-08T07:57:16.041Z,96.85
2023-03-08T07:59:45.611Z,96.30
2023-03-08T08:02:15.872Z,96.41
2023-03-08T08:04:45.737Z,96.44
2023-03-08T08:07:17.383Z,96.92
2023-03-08T08:09:47.499Z,96.18
2023-03-08T08:12:17.093Z,96.77
2023-03-08T08:14:46.773Z,96.78
2023-03-08T08:17:18.571Z,96.78
2023-03-08T08:19:48.533Z,97.07
2023-03-08T08:22:18.856Z,96.93
2023-03-08T08:24:48.443Z,96.00
2023-03-08T08:27:18.045Z,94.90
2023-03-08T08:29:50.299Z,94.95
2023-03-08T08:32:19.895Z,95.45
2023-03-08T08:34:49.504Z,95.16
2023-03-08T08:37:19.233Z,94.60
2023-03-08T08:39:49.796Z,95.07
2023-03-08T08:42:19.402Z,94.64
2023-03-08T08:44:48.994Z,94.26
2023-03-08T08:47:18.568Z,94.00
2023-03-08T08:49:48.294Z,92.42
2023-03-08T08:52:18.444Z,92.76
2023-03-08T08:54:48.025Z,92.53
2023-03-08T08:57:17.611Z,92.92
2023-03-08T08:59:47.617Z,93.02
2023-03-08T09:02:17.460Z,92.13
2023-03-08T09:04:47.201Z,91.54
2023-03-08T09:07:16.994Z,92.77
2023-03-08T09:09:47.054Z,91.85
2023-03-08T09:12:16.820Z,91.73
2023-03-08T09:14:47.434Z,90.94
2023-03-08T09:17:17.060Z,89.55
2023-03-08T09:19:47.193Z,90.79
2023-03-08T09:22:17.892Z,90.65
2023-03-08T09:24:50.458Z,90.74
2023-03-08T09:27:20.313Z,90.43
2023-03-08T09:29:50.274Z,90.55
2023-03-08T09:32:19.950Z,89.34
2023-03-08T09:34:49.522Z,89.78
2023-03-08T09:37:19.070Z,90.31
2023-03-08T09:39:51.965Z,90.32
2023-03-08T09:42:26.944Z,89.57
2023-03-08T09:45:08.129Z,89.10
2023-03-08T09:47:46.465Z,88.68
2023-03-08T09:50:32.950Z,89.54
2023-03-08T09:53:11.025Z,90.15
2023-03-08T09:55:51.356Z,90.29
2023-03-08T09:58:32.924Z,90.00
2023-03-08T10:01:16.041Z,90.03
2023-03-08T10:04:08.658Z,89.38
2023-03-08T10:06:43.916Z,89.44
2023-03-08T10:09:26.817Z,89.59
2023-03-08T10:12:03.775Z,89.23
2023-03-08T10:14:35.936Z,90.08
2023-03-08T10:17:13.141Z,89.65
2023-03-08T10:19:47.831Z,90.48
2023-03-08T10:22:25.325Z,90.10
2023-03-08T10:24:58.552Z,90.18
2023-03-08T10:27:32.242Z,89.87
2023-03-08T10:30:11.523Z,89.10
2023-03-08T10:32:46.758Z,89.90
2023-03-08T10:35:17.845Z,88.29
2023-03-08T10:37:52.615Z,88.37
2023-03-08T10:40:23.005Z,88.99
2023-03-08T10:43:00.365Z,88.95
2023-03-08T10:45:31.573Z,88.11
2023-03-08T10:48:02.885Z,87.40
2023-03-08T10:50:34.927Z,86.12
2023-03-08T10:53:16.061Z,84.99
2023-03-08T10:55:50.088Z,85.90
2023-03-08T10:58:31.435Z,87.27
2023-03-08T11:01:03.698Z,87.36
2023-03-08T11:03:34.123Z,87.04
2023-03-08T11:06:13.552Z,86.07
2023-03-08T11:08:54.485Z,86.12
2023-03-08T11:11:24.177Z,87.52
2023-03-08T11:13:54.848Z,85.80
2023-03-08T11:16:41.066Z,85.87
2023-03-08T11:19:26.488Z,86.77
2023-03-08T11:22:06.180Z,85.92
2023-03-08T11:24:59.908Z,86.67
2023-03-08T11:27:43.988Z,86.83
2023-03-08T11:30:27.669Z,86.73
2023-03-08T11:33:22.430Z,87.32
2023-03-08T11:35:59.863Z,87.03
2023-03-08T11:38:31.498Z,87.73
2023-03-08T11:41:10.978Z,87.42
2023-03-08T11:44:04.032Z,84.98
2023-03-08T11:46:57.639Z,84.68
2023-03-08T11:49:47.637Z,85.86
2023-03-08T11:52:29.374Z,87.50
2023-03-08T11:55:20.007Z,87.27
2023-03-08T11:57:56.762Z,86.89
2023-03-08T12:00:30.761Z,86.90
2023-03-08T12:03:06.355Z,87.99
2023-03-08T12:05:40.320Z,86.70
2023-03-08T12:08:15.918Z,86.95
2023-03-08T12:10:51.353Z,85.92
2023-03-08T12:13:25.439Z,86.26
2023-03-08T12:16:00.065Z,85.90
2023-03-08T12:18:37.926Z,86.04
2023-03-08T12:21:18.423Z,86.44
2023-03-08T12:23:57.055Z,87.90
2023-03-08T12:26:31.832Z,87.44
2023-03-08T12:29:05.557Z,87.13
2023-03-08T12:31:40.903Z,87.40
2023-03-08T12:34:25.125Z,87.17
2023-03-08T12:36:55.549Z,86.81
2023-03-08T12:39:28.972Z,84.18
2023-03-08T12:42:00.822Z,83.69
2023-03-08T12:44:31.647Z,84.86
2023-03-08T12:47:17.636Z,84.53
2023-03-08T12:49:51.118Z,84.10
2023-03-08T12:52:34.468Z,84.39
2023-03-08T12:55:11.105Z,83.96
2023-03-08T12:57:46.948Z,83.12
2023-03-08T13:00:29.244Z,83.73
2023-03-08T13:03:04.764Z,84.17
2023-03-08T13:05:37.050Z,85.56
2023-03-08T13:08:22.881Z,86.07
2023-03-08T13:11:06.763Z,85.94
2023-03-08T13:13:50.438Z,85.74
2023-03-08T13:16:32.653Z,86.21
2023-03-08T13:19:18.626Z,84.64
2023-03-08T13:22:00.620Z,84.25
2023-03-08T13:24:40.387Z,85.20
2023-03-08T13:27:32.846Z,85.30
2023-03-08T13:30:20.504Z,86.54
2023-03-08T13:32:51.538Z,87.34
2023-03-08T13:35:21.808Z,87.57
2023-03-08T13:37:56.296Z,87.83
2023-03-08T13:40:27.754Z,87.59
2023-03-08T13:42:58.914Z,87.24
2023-03-08T13:45:29.028Z,85.23
2023-03-08T13:48:02.928Z,86.04
2023-03-08T13:50:35.525Z,86.79
2023-03-08T13:53:10.442Z,86.76
2023-03-08T13:55:43.828Z,86.32
2023-03-08T13:58:25.564Z,85.37
2023-03-08T14:01:03.955Z,85.64
2023-03-08T14:03:33.949Z,86.20
2023-03-08T14:06:04.063Z,86.34
2023-03-08T14:08:33.697Z,86.76
2023-03-08T14:11:08.190Z,86.92
2023-03-08T14:13:40.926Z,85.74
2023-03-08T14:16:23.953Z,85.68
2023-03-08T14:18:54.901Z,85.55
2023-03-08T14:21:26.932Z,84.70
2023-03-08T14:23:57.932Z,85.68
2023-03-08T14:26:34.231Z,86.25
2023-03-08T14:29:16.889Z,86.75
2023-03-08T14:32:28.188Z,86.71
2023-03-08T14:35:07.130Z,86.38
2023-03-08T14:37:36.984Z,85.55
2023-03-08T14:40:27.663Z,85.29
2023-03-08T14:42:59.051Z,85.49
2023-03-08T14:45:33.960Z,86.34
2023-03-08T14:48:15.772Z,86.73
2023-03-08T14:50:55.057Z,86.92
2023-03-08T14:53:31.291Z,86.58
2023-03-08T14:56:03.033Z,87.19
2023-03-08T14:58:54.941Z,86.63
2023-03-08T15:01:29.695Z,87.18
2023-03-08T15:04:00.083Z,87.46
2023-03-08T15:06:33.439Z,87.44
2023-03-08T15:09:07.030Z,87.66
2023-03-08T15:11:36.848Z,87.06
2023-03-08T15:14:06.457Z,87.06
2023-03-08T15:16:36.103Z,87.10
2023-03-08T15:19:06.008Z,87.31
2023-03-08T15:21:37.323Z,87.36
2023-03-08T15:24:10.834Z,87.78
2023-03-08T15:26:40.377Z,88.42
2023-03-08T15:29:24.190Z,88.32
2023-03-08T15:31:54.321Z,88.41
2023-03-08T15:34:25.668Z,88.60
2023-03-08T15:36:57.266Z,88.93
2023-03-08T15:39:27.246Z,88.78
2023-03-08T15:41:56.862Z,88.50
2023-03-08T15:44:26.454Z,88.64
2023-03-08T15:46:56.160Z,88.46
2023-03-08T15:49:25.780Z,88.88
2023-03-08T15:51:55.383Z,89.17
2023-03-08T15:54:28.289Z,89.42
2023-03-08T15:56:58.889Z,89.63
2023-03-08T15:59:28.470Z,89.63
2023-03-08T16:01:58.083Z,89.77
2023-03-08T16:04:27.773Z,90.12
2023-03-08T16:06:57.757Z,90.05
2023-03-08T16:09:27.386Z,90.21
2023-03-08T16:11:56.957Z,90.22
2023-03-08T16:14:26.544Z,90.30
2023-03-08T16:16:56.541Z,90.06
2023-03-08T16:19:26.413Z,90.32
2023-03-08T16:21:56.896Z,90.44
2023-03-08T16:24:27.168Z,90.64
2023-03-08T16:26:57.188Z,90.80
2023-03-08T16:29:27.092Z,90.91
2023-03-08T16:31:58.341Z,90.78
2023-03-08T16:34:29.517Z,90.69
2023-03-08T16:36:59.589Z,90.41
2023-03-08T16:39:29.206Z,90.65
2023-03-08T16:41:58.825Z,90.49
2023-03-08T16:44:30.644Z,90.46
2023-03-08T16:47:00.211Z,90.87
2023-03-08T16:49:29.870Z,90.78
2023-03-08T16:51:59.533Z,90.83
2023-03-08T16:54:29.135Z,90.65
2023-03-08T16:57:01.115Z,90.73
2023-03-08T16:59:34.517Z,90.52
2023-03-08T17:02:04.165Z,91.08
2023-03-08T17:04:33.805Z,90.73
2023-03-08T17:07:07.745Z,90.85
2023-03-08T17:09:38.241Z,91.07
2023-03-08T17:12:08.857Z,90.96
2023-03-08T17:14:38.466Z,91.15
2023-03-08T17:17:09.845Z,91.37
2023-03-08T17:19:41.018Z,91.37
2023-03-08T17:22:11.176Z,91.17
2023-03-08T17:24:40.780Z,91.38
2023-03-08T17:27:10.343Z,91.49
2023-03-08T17:29:39.895Z,91.46
2023-03-08T17:32:09.720Z,91.45
2023-03-08T17:34:39.353Z,91.53
2023-03-08T17:37:11.716Z,91.63
2023-03-08T17:39:41.935Z,91.55
2023-03-08T17:42:11.608Z,91.49
2023-03-08T17:44:41.498Z,91.80
2023-03-08T17:47:13.270Z,91.60
2023-03-08T17:49:42.841Z,91.41
2023-03-08T17:52:12.414Z,91.67
2023-03-08T17:54:42.096Z,91.77
2023-03-08T17:57:11.684Z,91.84
2023-03-08T17:59:41.260Z,92.04
2023-03-08T18:02:11.539Z,91.92
2023-03-08T18:04:44.431Z,91.90
2023-03-08T18:07:15.154Z,91.86
2023-03-08T18:09:47.520Z,91.49
2023-03-08T18:12:17.499Z,91.84
2023-03-08T18:14:51.841Z,91.87
2023-03-08T18:17:22.398Z,91.44
2023-03-08T18:19:51.956Z,91.75
2023-03-08T18:22:21.548Z,91.79
2023-03-08T18:24:51.376Z,91.80
2023-03-08T18:27:20.971Z,92.12
2023-03-08T18:29:50.771Z,91.73
2023-03-08T18:32:20.431Z,91.67
2023-03-08T18:34:50.201Z,92.01
2023-03-08T18:37:19.768Z,92.18
2023-03-08T18:39:54.239Z,92.25
2023-03-08T18:42:23.924Z,92.34
2023-03-08T18:44:53.509Z,92.08
2023-03-08T18:47:23.164Z,92.42
2023-03-08T18:49:53.055Z,92.17
2023-03-08T18:52:22.648Z,92.17
2023-03-08T18:54:52.225Z,92.40
2023-03-08T18:57:21.898Z,92.16
2023-03-08T18:59:51.720Z,92.69
2023-03-08T19:02:26.773Z,92.31
2023-03-08T19:04:58.024Z,91.93
2023-03-08T19:07:27.667Z,91.84
2023-03-08T19:09:59.326Z,92.09
2023-03-08T19:12:29.704Z,92.09
2023-03-08T19:14:59.312Z,92.29
2023-03-08T19:17:28.941Z,92.27
2023-03-08T19:19:58.685Z,92.31
2023-03-08T19:22:28.278Z,92.51
2023-03-08T19:24:58.141Z,92.39
2023-03-08T19:27:28.649Z,92.52
2023-03-08T19:29:58.395Z,92.39
2023-03-08T19:32:28.019Z,91.77
2023-03-08T19:34:57.628Z,92.13
2023-03-08T19:37:27.298Z,92.23
2023-03-08T19:39:57.160Z,91.98
2023-03-08T19:42:26.832Z,92.06
2023-03-08T19:44:56.453Z,92.42
2023-03-08T19:47:26.063Z,92.27
2023-03-08T19:49:55.656Z,92.47
2023-03-08T19:52:25.289Z,92.18
2023-03-08T19:54:55.099Z,92.30
2023-03-08T19:57:24.650Z,92.25
2023-03-08T19:59:57.318Z,91.99
2023-03-08T20:02:27.925Z,92.02
2023-03-08T20:04:57.693Z,91.87
2023-03-08T20:07:27.366Z,92.05
2023-03-08T20:10:04.602Z,92.40
2023-03-08T20:12:40.029Z,92.32
2023-03-08T20:15:10.945Z,92.42
2023-03-08T20:17:40.574Z,92.63
2023-03-08T20:20:13.940Z,92.33
2023-03-08T20:22:43.614Z,92.59
2023-03-08T20:25:13.492Z,92.71
2023-03-08T20:27:43.670Z,93.01
2023-03-08T20:30:14.687Z,93.02
2023-03-08T20:32:44.362Z,93.18
2023-03-08T20:35:14.789Z,93.18
2023-03-08T20:37:44.452Z,93.49
2023-03-08T20:40:16.112Z,93.54
2023-03-08T20:42:45.800Z,93.50
2023-03-08T20:45:15.759Z,93.30
2023-03-08T20:47:46.081Z,93.48
2023-03-08T20:50:15.757Z,93.44
2023-03-08T20:52:46.859Z,93.35
2023-03-08T20:55:18.311Z,93.20
2023-03-08T20:57:48.019Z,93.54
2023-03-08T21:00:18.043Z,93.65
2023-03-08T21:02:47.702Z,93.49
2023-03-08T21:05:17.606Z,93.41
2023-03-08T21:07:47.197Z,94.02
2023-03-08T21:10:17.277Z,94.05
2023-03-08T21:12:46.890Z,94.12
2023-03-08T21:15:16.739Z,94.35
2023-03-08T21:17:46.364Z,94.01
2023-03-08T21:20:16.299Z,94.33
2023-03-08T21:22:45.922Z,94.58
2023-03-08T21:25:15.715Z,94.58
2023-03-08T21:27:45.279Z,94.61
2023-03-08T21:30:15.354Z,94.33
2023-03-08T21:32:44.963Z,94.82
2023-03-08T21:35:14.732Z,94.71
2023-03-08T21:37:44.405Z,94.77
2023-03-08T21:40:14.741Z,94.83
2023-03-08T21:42:44.300Z,94.94
2023-03-08T21:45:14.297Z,94.90
2023-03-08T21:47:44.028Z,95.21
2023-03-08T21:50:14.056Z,95.01
2023-03-08T21:52:44.196Z,95.15
2023-03-08T21:55:13.801Z,95.09
2023-03-08T21:57:43.687Z,95.49
2023-03-08T22:00:16.647Z,95.12
2023-03-08T22:02:54.160Z,95.17
2023-03-08T22:05:24.437Z,95.37
2023-03-08T22:07:54.015Z,95.51
2023-03-08T22:10:23.666Z,95.61
2023-03-08T22:12:53.231Z,95.67
2023-03-08T22:15:22.800Z,95.91
2023-03-08T22:17:53.825Z,95.82
2023-03-08T22:20:23.434Z,95.61
2023-03-08T22:22:53.033Z,95.59
2023-03-08T22:25:22.637Z,95.96
2023-03-08T22:27:52.249Z,95.62
2023-03-08T22:30:22.270Z,96.01
2023-03-08T22:32:51.811Z,95.85
2023-03-08T22:35:21.797Z,96.11
2023-03-08T22:37:51.405Z,96.32
2023-03-08T22:40:21.125Z,96.24
2023-03-08T22:42:50.714Z,96.17
2023-03-08T22:45:20.545Z,96.03
2023-03-08T22:47:52.096Z,96.47
2023-03-08T22:50:21.916Z,96.33
2023-03-08T22:52:51.519Z,96.35
2023-03-08T22:55:21.445Z,95.82
2023-03-08T22:57:51.032Z,96.09
2023-03-08T23:00:20.955Z,95.91
2023-03-08T23:02:54.918Z,96.30
2023-03-08T23:05:25.119Z,96.00
2023-03-08T23:07:54.682Z,96.09
2023-03-08T23:10:24.236Z,95.77
2023-03-08T23:12:53.804Z,95.80
2023-03-08T23:15:23.303Z,95.55
2023-03-08T23:17:52.907Z,95.53
2023-03-08T23:20:23.191Z,95.87
2023-03-08T23:22:52.771Z,95.42
2023-03-08T23:25:22.345Z,95.72
2023-03-08T23:27:51.926Z,95.51
2023-03-08T23:30:21.937Z,95.43
2023-03-08T23:32:51.583Z,95.44
2023-03-08T23:35:21.433Z,95.50
2023-03-08T23:37:51.009Z,95.36
2023-03-08T23:40:20.832Z,95.18
2023-03-08T23:42:51.045Z,95.48
2023-03-08T23:45:21.120Z,94.96
2023-03-08T23:47:51.279Z,95.10
2023-03-08T23:50:21.090Z,94.72
2023-03-08T23:52:50.668Z,95.00
2023-03-08T23:55:20.535Z,94.82
2023-03-08T23:57:51.167Z,94.97
